sensor_id;sensor_type;location;lat;lon;timestamp;P1;durP1;ratioP1;P2;durP2;ratioP2
3274;SDS011;1649;53.672;10.064;2023-08-01T00:01:53;4.60;;;2.07;;
3274;SDS011;1649;53.672;10.064;2023-08-01T00:04:18;5.70;;;2.80;;
3274;SDS011;1649;53.672;10.064;2023-08-01T00:06:44;6.13;;;2.67;;
3274;SDS011;1649;53.672;10.064;2023-08-01T00:09:09;4.90;;;2.30;;
3274;SDS011;1649;53.672;10.064;2023-08-01T00:11:35;5.33;;;2.93;;
3274;SDS011;1649;53.672;10.064;2023-08-01T00:14:00;6.50;;;3.30;;
3274;SDS011;1649;53.672;10.064;2023-08-01T00:16:26;7.57;;;3.30;;
3274;SDS011;1649;53.672;10.064;2023-08-01T00:18:52;6.60;;;3.20;;
3274;SDS011;1649;53.672;10.064;2023-08-01T00:21:17;6.80;;;3.60;;
3274;SDS011;1649;53.672;10.064;2023-08-01T00:23:42;8.23;;;3.63;;
3274;SDS011;1649;53.672;10.064;2023-08-01T00:26:08;7.50;;;4.23;;
3274;SDS011;1649;53.672;10.064;2023-08-01T00:28:33;9.27;;;4.47;;
3274;SDS011;1649;53.672;10.064;2023-08-01T00:31:03;8.40;;;4.60;;
3274;SDS011;1649;53.672;10.064;2023-08-01T00:33:33;7.50;;;3.77;;
3274;SDS011;1649;53.672;10.064;2023-08-01T00:35:59;11.43;;;4.50;;
3274;SDS011;1649;53.672;10.064;2023-08-01T00:38:25;7.43;;;3.93;;
3274;SDS011;1649;53.672;10.064;2023-08-01T00:40:51;6.70;;;4.00;;
3274;SDS011;1649;53.672;10.064;2023-08-01T00:43:16;9.00;;;4.03;;
3274;SDS011;1649;53.672;10.064;2023-08-01T00:45:42;7.50;;;4.00;;
3274;SDS011;1649;53.672;10.064;2023-08-01T00:48:08;6.87;;;3.40;;
3274;SDS011;1649;53.672;10.064;2023-08-01T00:50:33;8.40;;;4.47;;
3274;SDS011;1649;53.672;10.064;2023-08-01T00:52:59;7.07;;;4.27;;
3274;SDS011;1649;53.672;10.064;2023-08-01T00:55:26;8.60;;;4.40;;
3274;SDS011;1649;53.672;10.064;2023-08-01T00:57:54;6.70;;;3.80;;
3274;SDS011;1649;53.672;10.064;2023-08-01T01:00:19;7.00;;;4.00;;
3274;SDS011;1649;53.672;10.064;2023-08-01T01:02:45;5.80;;;3.23;;
3274;SDS011;1649;53.672;10.064;2023-08-01T01:05:11;6.13;;;3.33;;
3274;SDS011;1649;53.672;10.064;2023-08-01T01:07:38;7.37;;;3.87;;
3274;SDS011;1649;53.672;10.064;2023-08-01T01:10:04;6.90;;;3.40;;
3274;SDS011;1649;53.672;10.064;2023-08-01T01:12:30;6.60;;;3.80;;
3274;SDS011;1649;53.672;10.064;2023-08-01T01:14:56;5.63;;;3.27;;
3274;SDS011;1649;53.672;10.064;2023-08-01T01:17:21;6.63;;;3.60;;
3274;SDS011;1649;53.672;10.064;2023-08-01T01:19:46;6.90;;;3.47;;
3274;SDS011;1649;53.672;10.064;2023-08-01T01:22:12;7.53;;;3.40;;
3274;SDS011;1649;53.672;10.064;2023-08-01T01:24:38;6.00;;;3.50;;
3274;SDS011;1649;53.672;10.064;2023-08-01T01:27:06;5.73;;;3.33;;
3274;SDS011;1649;53.672;10.064;2023-08-01T01:29:32;8.03;;;4.00;;
3274;SDS011;1649;53.672;10.064;2023-08-01T01:32:01;8.63;;;4.37;;
3274;SDS011;1649;53.672;10.064;2023-08-01T01:34:28;6.67;;;3.47;;
3274;SDS011;1649;53.672;10.064;2023-08-01T01:36:54;7.10;;;4.33;;
3274;SDS011;1649;53.672;10.064;2023-08-01T01:39:20;7.97;;;4.47;;
3274;SDS011;1649;53.672;10.064;2023-08-01T01:41:45;9.63;;;4.50;;
3274;SDS011;1649;53.672;10.064;2023-08-01T01:44:11;7.23;;;4.50;;
3274;SDS011;1649;53.672;10.064;2023-08-01T01:46:36;10.47;;;5.20;;
3274;SDS011;1649;53.672;10.064;2023-08-01T01:49:02;8.97;;;5.07;;
3274;SDS011;1649;53.672;10.064;2023-08-01T01:51:28;8.07;;;4.83;;
3274;SDS011;1649;53.672;10.064;2023-08-01T01:53:54;8.30;;;5.20;;
3274;SDS011;1649;53.672;10.064;2023-08-01T01:56:19;9.90;;;5.90;;
3274;SDS011;1649;53.672;10.064;2023-08-01T01:58:45;9.23;;;5.50;;
3274;SDS011;1649;53.672;10.064;2023-08-01T02:01:10;10.70;;;6.10;;
3274;SDS011;1649;53.672;10.064;2023-08-01T02:03:35;10.83;;;6.70;;
3274;SDS011;1649;53.672;10.064;2023-08-01T02:06:01;13.47;;;7.90;;
3274;SDS011;1649;53.672;10.064;2023-08-01T02:08:30;11.03;;;6.50;;
3274;SDS011;1649;53.672;10.064;2023-08-01T02:10:56;13.60;;;7.87;;
3274;SDS011;1649;53.672;10.064;2023-08-01T02:13:23;13.47;;;8.00;;
3274;SDS011;1649;53.672;10.064;2023-08-01T02:15:49;16.57;;;7.50;;
3274;SDS011;1649;53.672;10.064;2023-08-01T02:18:14;15.67;;;8.37;;
3274;SDS011;1649;53.672;10.064;2023-08-01T02:20:40;13.47;;;7.60;;
3274;SDS011;1649;53.672;10.064;2023-08-01T02:23:05;15.30;;;8.50;;
3274;SDS011;1649;53.672;10.064;2023-08-01T02:25:31;16.90;;;9.77;;
3274;SDS011;1649;53.672;10.064;2023-08-01T02:27:56;16.97;;;10.63;;
3274;SDS011;1649;53.672;10.064;2023-08-01T02:30:22;18.67;;;10.90;;
3274;SDS011;1649;53.672;10.064;2023-08-01T02:32:47;16.17;;;9.80;;
3274;SDS011;1649;53.672;10.064;2023-08-01T02:35:13;19.90;;;11.30;;
3274;SDS011;1649;53.672;10.064;2023-08-01T02:37:38;20.67;;;11.30;;
3274;SDS011;1649;53.672;10.064;2023-08-01T02:40:04;19.13;;;12.07;;
3274;SDS011;1649;53.672;10.064;2023-08-01T02:42:33;22.20;;;12.00;;
3274;SDS011;1649;53.672;10.064;2023-08-01T02:44:58;22.67;;;12.97;;
3274;SDS011;1649;53.672;10.064;2023-08-01T02:47:24;22.40;;;12.00;;
3274;SDS011;1649;53.672;10.064;2023-08-01T02:49:49;21.33;;;13.27;;
3274;SDS011;1649;53.672;10.064;2023-08-01T02:52:15;21.17;;;13.43;;
3274;SDS011;1649;53.672;10.064;2023-08-01T02:54:40;23.87;;;12.60;;
3274;SDS011;1649;53.672;10.064;2023-08-01T02:57:06;25.50;;;13.77;;
3274;SDS011;1649;53.672;10.064;2023-08-01T02:59:31;29.40;;;14.30;;
3274;SDS011;1649;53.672;10.064;2023-08-01T03:01:58;23.10;;;14.27;;
3274;SDS011;1649;53.672;10.064;2023-08-01T03:04:24;22.00;;;13.97;;
3274;SDS011;1649;53.672;10.064;2023-08-01T03:06:49;24.30;;;14.80;;
3274;SDS011;1649;53.672;10.064;2023-08-01T03:09:15;25.73;;;13.33;;
3274;SDS011;1649;53.672;10.064;2023-08-01T03:11:41;23.60;;;13.50;;
3274;SDS011;1649;53.672;10.064;2023-08-01T03:14:06;23.50;;;14.63;;
3274;SDS011;1649;53.672;10.064;2023-08-01T03:16:32;26.63;;;15.57;;
3274;SDS011;1649;53.672;10.064;2023-08-01T03:18:57;26.50;;;15.03;;
3274;SDS011;1649;53.672;10.064;2023-08-01T03:21:29;29.10;;;16.13;;
3274;SDS011;1649;53.672;10.064;2023-08-01T03:23:56;24.40;;;13.80;;
3274;SDS011;1649;53.672;10.064;2023-08-01T03:26:22;25.70;;;15.20;;
3274;SDS011;1649;53.672;10.064;2023-08-01T03:28:47;24.40;;;14.80;;
3274;SDS011;1649;53.672;10.064;2023-08-01T03:31:13;25.00;;;15.93;;
3274;SDS011;1649;53.672;10.064;2023-08-01T03:33:38;26.03;;;15.43;;
3274;SDS011;1649;53.672;10.064;2023-08-01T03:36:04;28.50;;;16.07;;
3274;SDS011;1649;53.672;10.064;2023-08-01T03:38:30;30.53;;;17.03;;
3274;SDS011;1649;53.672;10.064;2023-08-01T03:40:55;24.10;;;14.67;;
3274;SDS011;1649;53.672;10.064;2023-08-01T03:43:21;28.93;;;16.60;;
3274;SDS011;1649;53.672;10.064;2023-08-01T03:45:48;27.40;;;16.10;;
3274;SDS011;1649;53.672;10.064;2023-08-01T03:48:14;28.97;;;16.23;;
3274;SDS011;1649;53.672;10.064;2023-08-01T03:50:40;27.40;;;16.23;;
3274;SDS011;1649;53.672;10.064;2023-08-01T03:53:05;27.13;;;15.20;;
3274;SDS011;1649;53.672;10.064;2023-08-01T03:55:32;29.10;;;17.03;;
3274;SDS011;1649;53.672;10.064;2023-08-01T03:57:57;27.97;;;16.50;;
3274;SDS011;1649;53.672;10.064;2023-08-01T04:00:23;28.33;;;15.33;;
3274;SDS011;1649;53.672;10.064;2023-08-01T04:02:49;24.63;;;15.10;;
3274;SDS011;1649;53.672;10.064;2023-08-01T04:05:14;26.23;;;16.27;;
3274;SDS011;1649;53.672;10.064;2023-08-01T04:07:40;27.57;;;17.57;;
3274;SDS011;1649;53.672;10.064;2023-08-01T04:10:06;33.93;;;17.90;;
3274;SDS011;1649;53.672;10.064;2023-08-01T04:12:32;30.20;;;16.13;;
3274;SDS011;1649;53.672;10.064;2023-08-01T04:14:59;26.80;;;16.60;;
3274;SDS011;1649;53.672;10.064;2023-08-01T04:17:25;27.00;;;15.50;;
3274;SDS011;1649;53.672;10.064;2023-08-01T04:19:50;27.53;;;16.73;;
3274;SDS011;1649;53.672;10.064;2023-08-01T04:22:16;26.90;;;16.73;;
3274;SDS011;1649;53.672;10.064;2023-08-01T04:24:41;26.40;;;16.10;;
3274;SDS011;1649;53.672;10.064;2023-08-01T04:27:07;26.93;;;15.93;;
3274;SDS011;1649;53.672;10.064;2023-08-01T04:29:32;26.30;;;16.77;;
3274;SDS011;1649;53.672;10.064;2023-08-01T04:31:58;25.53;;;15.40;;
3274;SDS011;1649;53.672;10.064;2023-08-01T04:34:23;31.10;;;16.30;;
3274;SDS011;1649;53.672;10.064;2023-08-01T04:36:49;27.13;;;16.43;;
3274;SDS011;1649;53.672;10.064;2023-08-01T04:39:14;25.43;;;15.57;;
3274;SDS011;1649;53.672;10.064;2023-08-01T04:41:40;22.77;;;15.53;;
3274;SDS011;1649;53.672;10.064;2023-08-01T04:44:05;27.37;;;17.10;;
3274;SDS011;1649;53.672;10.064;2023-08-01T04:46:31;25.93;;;15.73;;
3274;SDS011;1649;53.672;10.064;2023-08-01T04:48:57;26.47;;;15.17;;
3274;SDS011;1649;53.672;10.064;2023-08-01T04:51:22;24.40;;;15.77;;
3274;SDS011;1649;53.672;10.064;2023-08-01T04:53:48;28.97;;;17.10;;
3274;SDS011;1649;53.672;10.064;2023-08-01T04:56:13;25.50;;;15.30;;
3274;SDS011;1649;53.672;10.064;2023-08-01T04:58:39;27.00;;;15.63;;
3274;SDS011;1649;53.672;10.064;2023-08-01T05:01:05;24.93;;;14.97;;
3274;SDS011;1649;53.672;10.064;2023-08-01T05:03:30;24.30;;;15.80;;
3274;SDS011;1649;53.672;10.064;2023-08-01T05:05:56;21.13;;;14.63;;
3274;SDS011;1649;53.672;10.064;2023-08-01T05:08:21;21.47;;;14.10;;
3274;SDS011;1649;53.672;10.064;2023-08-01T05:10:46;27.13;;;15.13;;
3274;SDS011;1649;53.672;10.064;2023-08-01T05:13:12;23.20;;;15.47;;
3274;SDS011;1649;53.672;10.064;2023-08-01T05:15:38;26.60;;;15.20;;
3274;SDS011;1649;53.672;10.064;2023-08-01T05:18:03;26.60;;;15.33;;
3274;SDS011;1649;53.672;10.064;2023-08-01T05:20:28;25.20;;;14.20;;
3274;SDS011;1649;53.672;10.064;2023-08-01T05:22:58;21.30;;;14.10;;
3274;SDS011;1649;53.672;10.064;2023-08-01T05:25:24;27.00;;;15.73;;
3274;SDS011;1649;53.672;10.064;2023-08-01T05:27:50;21.30;;;14.87;;
3274;SDS011;1649;53.672;10.064;2023-08-01T05:30:15;23.80;;;13.77;;
3274;SDS011;1649;53.672;10.064;2023-08-01T05:32:41;27.40;;;15.33;;
3274;SDS011;1649;53.672;10.064;2023-08-01T05:35:08;21.67;;;15.43;;
3274;SDS011;1649;53.672;10.064;2023-08-01T05:37:34;21.07;;;14.60;;
3274;SDS011;1649;53.672;10.064;2023-08-01T05:39:59;23.60;;;13.87;;
3274;SDS011;1649;53.672;10.064;2023-08-01T05:42:25;24.37;;;14.33;;
3274;SDS011;1649;53.672;10.064;2023-08-01T05:44:51;20.87;;;12.77;;
3274;SDS011;1649;53.672;10.064;2023-08-01T05:47:16;21.53;;;13.00;;
3274;SDS011;1649;53.672;10.064;2023-08-01T05:49:42;24.27;;;13.23;;
3274;SDS011;1649;53.672;10.064;2023-08-01T05:52:07;20.53;;;12.80;;
3274;SDS011;1649;53.672;10.064;2023-08-01T05:54:33;20.33;;;13.40;;
3274;SDS011;1649;53.672;10.064;2023-08-01T05:56:58;19.67;;;13.63;;
3274;SDS011;1649;53.672;10.064;2023-08-01T05:59:24;17.80;;;12.00;;
3274;SDS011;1649;53.672;10.064;2023-08-01T06:01:49;19.03;;;12.13;;
3274;SDS011;1649;53.672;10.064;2023-08-01T06:04:15;22.87;;;12.90;;
3274;SDS011;1649;53.672;10.064;2023-08-01T06:06:40;17.97;;;12.37;;
3274;SDS011;1649;53.672;10.064;2023-08-01T06:09:06;17.57;;;12.20;;
3274;SDS011;1649;53.672;10.064;2023-08-01T06:11:31;23.73;;;12.30;;
3274;SDS011;1649;53.672;10.064;2023-08-01T06:13:58;20.93;;;11.23;;
3274;SDS011;1649;53.672;10.064;2023-08-01T06:16:24;18.27;;;11.40;;
3274;SDS011;1649;53.672;10.064;2023-08-01T06:18:49;16.23;;;10.50;;
3274;SDS011;1649;53.672;10.064;2023-08-01T06:21:15;18.80;;;11.10;;
3274;SDS011;1649;53.672;10.064;2023-08-01T06:23:40;15.33;;;9.77;;
3274;SDS011;1649;53.672;10.064;2023-08-01T06:26:06;17.03;;;10.40;;
3274;SDS011;1649;53.672;10.064;2023-08-01T06:28:31;18.23;;;10.30;;
3274;SDS011;1649;53.672;10.064;2023-08-01T06:30:57;17.17;;;10.03;;
3274;SDS011;1649;53.672;10.064;2023-08-01T06:33:22;13.50;;;9.10;;
3274;SDS011;1649;53.672;10.064;2023-08-01T06:35:48;14.67;;;10.10;;
3274;SDS011;1649;53.672;10.064;2023-08-01T06:38:14;15.30;;;10.20;;
3274;SDS011;1649;53.672;10.064;2023-08-01T06:40:39;18.50;;;9.70;;
3274;SDS011;1649;53.672;10.064;2023-08-01T06:43:05;14.10;;;9.40;;
3274;SDS011;1649;53.672;10.064;2023-08-01T06:45:30;15.50;;;9.00;;
3274;SDS011;1649;53.672;10.064;2023-08-01T06:47:56;13.13;;;9.17;;
3274;SDS011;1649;53.672;10.064;2023-08-01T06:50:21;12.30;;;8.63;;
3274;SDS011;1649;53.672;10.064;2023-08-01T06:52:47;12.70;;;8.40;;
3274;SDS011;1649;53.672;10.064;2023-08-01T06:55:12;14.63;;;7.13;;
3274;SDS011;1649;53.672;10.064;2023-08-01T06:57:38;13.63;;;7.47;;
3274;SDS011;1649;53.672;10.064;2023-08-01T07:00:03;12.00;;;7.33;;
3274;SDS011;1649;53.672;10.064;2023-08-01T07:02:29;13.47;;;5.93;;
3274;SDS011;1649;53.672;10.064;2023-08-01T07:04:55;11.60;;;6.30;;
3274;SDS011;1649;53.672;10.064;2023-08-01T07:07:20;9.93;;;6.23;;
3274;SDS011;1649;53.672;10.064;2023-08-01T07:09:46;13.00;;;6.73;;
3274;SDS011;1649;53.672;10.064;2023-08-01T07:12:11;11.70;;;6.57;;
3274;SDS011;1649;53.672;10.064;2023-08-01T07:14:37;11.67;;;6.77;;
3274;SDS011;1649;53.672;10.064;2023-08-01T07:17:02;11.00;;;6.00;;
3274;SDS011;1649;53.672;10.064;2023-08-01T07:19:28;12.00;;;5.97;;
3274;SDS011;1649;53.672;10.064;2023-08-01T07:21:53;8.40;;;5.57;;
3274;SDS011;1649;53.672;10.064;2023-08-01T07:24:19;8.20;;;5.37;;
3274;SDS011;1649;53.672;10.064;2023-08-01T07:26:44;12.27;;;5.40;;
3274;SDS011;1649;53.672;10.064;2023-08-01T07:29:10;11.67;;;5.90;;
3274;SDS011;1649;53.672;10.064;2023-08-01T07:31:36;9.10;;;5.70;;
3274;SDS011;1649;53.672;10.064;2023-08-01T07:34:02;8.43;;;5.03;;
3274;SDS011;1649;53.672;10.064;2023-08-01T07:36:27;9.27;;;5.23;;
3274;SDS011;1649;53.672;10.064;2023-08-01T07:38:53;10.30;;;5.00;;
3274;SDS011;1649;53.672;10.064;2023-08-01T07:41:19;8.20;;;4.10;;
3274;SDS011;1649;53.672;10.064;2023-08-01T07:43:44;9.83;;;5.10;;
3274;SDS011;1649;53.672;10.064;2023-08-01T07:46:10;9.50;;;4.80;;
3274;SDS011;1649;53.672;10.064;2023-08-01T07:48:36;7.10;;;4.43;;
3274;SDS011;1649;53.672;10.064;2023-08-01T07:51:02;7.90;;;4.00;;
3274;SDS011;1649;53.672;10.064;2023-08-01T07:53:30;8.77;;;4.67;;
3274;SDS011;1649;53.672;10.064;2023-08-01T07:55:55;8.30;;;4.17;;
3274;SDS011;1649;53.672;10.064;2023-08-01T07:58:21;7.20;;;4.10;;
3274;SDS011;1649;53.672;10.064;2023-08-01T08:00:47;6.60;;;4.10;;
3274;SDS011;1649;53.672;10.064;2023-08-01T08:03:13;8.63;;;3.80;;
3274;SDS011;1649;53.672;10.064;2023-08-01T08:05:38;5.60;;;3.50;;
3274;SDS011;1649;53.672;10.064;2023-08-01T08:08:05;8.37;;;3.87;;
3274;SDS011;1649;53.672;10.064;2023-08-01T08:10:31;6.70;;;3.73;;
3274;SDS011;1649;53.672;10.064;2023-08-01T08:12:56;6.57;;;4.00;;
3274;SDS011;1649;53.672;10.064;2023-08-01T08:15:22;6.60;;;3.40;;
3274;SDS011;1649;53.672;10.064;2023-08-01T08:17:48;9.90;;;4.10;;
3274;SDS011;1649;53.672;10.064;2023-08-01T08:20:14;7.23;;;3.80;;
3274;SDS011;1649;53.672;10.064;2023-08-01T08:22:39;9.90;;;4.00;;
3274;SDS011;1649;53.672;10.064;2023-08-01T08:25:05;11.17;;;4.07;;
3274;SDS011;1649;53.672;10.064;2023-08-01T08:27:31;7.60;;;4.40;;
3274;SDS011;1649;53.672;10.064;2023-08-01T08:29:56;8.43;;;4.70;;
3274;SDS011;1649;53.672;10.064;2023-08-01T08:32:22;9.13;;;3.97;;
3274;SDS011;1649;53.672;10.064;2023-08-01T08:34:47;7.60;;;3.97;;
3274;SDS011;1649;53.672;10.064;2023-08-01T08:37:13;6.93;;;3.70;;
3274;SDS011;1649;53.672;10.064;2023-08-01T08:39:38;9.97;;;4.20;;
3274;SDS011;1649;53.672;10.064;2023-08-01T08:42:04;7.57;;;4.10;;
3274;SDS011;1649;53.672;10.064;2023-08-01T08:44:30;6.40;;;3.60;;
3274;SDS011;1649;53.672;10.064;2023-08-01T08:47:02;6.27;;;3.50;;
3274;SDS011;1649;53.672;10.064;2023-08-01T08:49:29;9.73;;;3.73;;
3274;SDS011;1649;53.672;10.064;2023-08-01T08:51:56;9.30;;;3.77;;
3274;SDS011;1649;53.672;10.064;2023-08-01T08:54:22;7.67;;;3.90;;
3274;SDS011;1649;53.672;10.064;2023-08-01T08:56:48;7.43;;;4.00;;
3274;SDS011;1649;53.672;10.064;2023-08-01T08:59:14;9.10;;;4.10;;
3274;SDS011;1649;53.672;10.064;2023-08-01T09:01:40;9.93;;;3.90;;
3274;SDS011;1649;53.672;10.064;2023-08-01T09:04:05;10.90;;;4.03;;
3274;SDS011;1649;53.672;10.064;2023-08-01T09:06:32;13.27;;;4.30;;
3274;SDS011;1649;53.672;10.064;2023-08-01T09:09:03;8.70;;;4.13;;
3274;SDS011;1649;53.672;10.064;2023-08-01T09:11:44;10.30;;;5.00;;
3274;SDS011;1649;53.672;10.064;2023-08-01T09:14:13;9.47;;;5.03;;
3274;SDS011;1649;53.672;10.064;2023-08-01T09:16:40;13.13;;;5.00;;
3274;SDS011;1649;53.672;10.064;2023-08-01T09:19:06;8.57;;;5.07;;
3274;SDS011;1649;53.672;10.064;2023-08-01T09:21:32;6.60;;;3.17;;
3274;SDS011;1649;53.672;10.064;2023-08-01T09:24:09;7.80;;;4.27;;
3274;SDS011;1649;53.672;10.064;2023-08-01T09:26:38;9.97;;;3.47;;
3274;SDS011;1649;53.672;10.064;2023-08-01T09:29:04;8.37;;;3.80;;
3274;SDS011;1649;53.672;10.064;2023-08-01T09:31:32;7.13;;;4.43;;
3274;SDS011;1649;53.672;10.064;2023-08-01T09:33:59;7.80;;;4.33;;
3274;SDS011;1649;53.672;10.064;2023-08-01T09:36:25;9.40;;;5.00;;
3274;SDS011;1649;53.672;10.064;2023-08-01T09:38:50;9.87;;;4.70;;
3274;SDS011;1649;53.672;10.064;2023-08-01T09:41:19;9.97;;;4.93;;
3274;SDS011;1649;53.672;10.064;2023-08-01T09:43:48;7.40;;;4.50;;
3274;SDS011;1649;53.672;10.064;2023-08-01T09:46:15;9.20;;;4.90;;
3274;SDS011;1649;53.672;10.064;2023-08-01T09:48:41;7.60;;;4.40;;
3274;SDS011;1649;53.672;10.064;2023-08-01T09:53:46;7.53;;;3.60;;
3274;SDS011;1649;53.672;10.064;2023-08-01T09:56:20;6.97;;;3.00;;
3274;SDS011;1649;53.672;10.064;2023-08-01T09:58:47;5.63;;;2.70;;
3274;SDS011;1649;53.672;10.064;2023-08-01T10:01:13;6.50;;;2.83;;
3274;SDS011;1649;53.672;10.064;2023-08-01T10:03:40;5.13;;;2.63;;
3274;SDS011;1649;53.672;10.064;2023-08-01T10:06:10;5.57;;;2.60;;
3274;SDS011;1649;53.672;10.064;2023-08-01T10:08:37;6.03;;;2.40;;
3274;SDS011;1649;53.672;10.064;2023-08-01T10:11:04;5.70;;;3.20;;
3274;SDS011;1649;53.672;10.064;2023-08-01T10:13:30;5.17;;;2.80;;
3274;SDS011;1649;53.672;10.064;2023-08-01T10:15:57;4.90;;;2.43;;
3274;SDS011;1649;53.672;10.064;2023-08-01T10:18:23;4.60;;;2.00;;
3274;SDS011;1649;53.672;10.064;2023-08-01T10:20:49;5.10;;;2.30;;
3274;SDS011;1649;53.672;10.064;2023-08-01T10:23:15;5.30;;;2.13;;
3274;SDS011;1649;53.672;10.064;2023-08-01T10:25:41;5.00;;;2.40;;
3274;SDS011;1649;53.672;10.064;2023-08-01T10:28:08;5.30;;;2.30;;
3274;SDS011;1649;53.672;10.064;2023-08-01T10:30:33;4.63;;;2.03;;
3274;SDS011;1649;53.672;10.064;2023-08-01T10:32:59;5.83;;;2.10;;
3274;SDS011;1649;53.672;10.064;2023-08-01T10:35:35;6.40;;;1.93;;
3274;SDS011;1649;53.672;10.064;2023-08-01T10:40:37;4.60;;;1.70;;
3274;SDS011;1649;53.672;10.064;2023-08-01T10:43:02;5.43;;;1.93;;
3274;SDS011;1649;53.672;10.064;2023-08-01T10:45:28;5.30;;;2.00;;
3274;SDS011;1649;53.672;10.064;2023-08-01T10:47:54;4.57;;;1.80;;
3274;SDS011;1649;53.672;10.064;2023-08-01T10:50:34;8.77;;;2.47;;
3274;SDS011;1649;53.672;10.064;2023-08-01T10:53:03;4.80;;;2.03;;
3274;SDS011;1649;53.672;10.064;2023-08-01T10:55:40;6.37;;;2.23;;
3274;SDS011;1649;53.672;10.064;2023-08-01T10:58:06;7.30;;;2.10;;
3274;SDS011;1649;53.672;10.064;2023-08-01T11:00:32;5.40;;;1.77;;
3274;SDS011;1649;53.672;10.064;2023-08-01T11:02:58;4.80;;;1.90;;
3274;SDS011;1649;53.672;10.064;2023-08-01T11:05:23;5.70;;;1.87;;
3274;SDS011;1649;53.672;10.064;2023-08-01T11:07:54;8.00;;;2.60;;
3274;SDS011;1649;53.672;10.064;2023-08-01T11:10:25;5.13;;;2.00;;
3274;SDS011;1649;53.672;10.064;2023-08-01T11:12:52;3.90;;;1.60;;
3274;SDS011;1649;53.672;10.064;2023-08-01T11:15:18;5.80;;;1.50;;
3274;SDS011;1649;53.672;10.064;2023-08-01T11:17:48;4.97;;;1.80;;
3274;SDS011;1649;53.672;10.064;2023-08-01T11:20:15;4.23;;;1.50;;
3274;SDS011;1649;53.672;10.064;2023-08-01T11:22:57;4.13;;;1.40;;
3274;SDS011;1649;53.672;10.064;2023-08-01T11:25:32;4.27;;;1.43;;
3274;SDS011;1649;53.672;10.064;2023-08-01T11:28:00;4.10;;;1.60;;
3274;SDS011;1649;53.672;10.064;2023-08-01T11:30:31;4.70;;;1.80;;
3274;SDS011;1649;53.672;10.064;2023-08-01T11:32:57;4.20;;;1.50;;
3274;SDS011;1649;53.672;10.064;2023-08-01T11:35:23;3.90;;;1.40;;
3274;SDS011;1649;53.672;10.064;2023-08-01T11:37:49;4.17;;;1.30;;
3274;SDS011;1649;53.672;10.064;2023-08-01T11:40:16;4.07;;;1.33;;
3274;SDS011;1649;53.672;10.064;2023-08-01T11:42:42;6.63;;;1.47;;
3274;SDS011;1649;53.672;10.064;2023-08-01T11:45:11;4.33;;;1.20;;
3274;SDS011;1649;53.672;10.064;2023-08-01T11:47:37;3.70;;;1.30;;
3274;SDS011;1649;53.672;10.064;2023-08-01T11:50:09;3.80;;;1.10;;
3274;SDS011;1649;53.672;10.064;2023-08-01T11:52:34;4.97;;;1.10;;
3274;SDS011;1649;53.672;10.064;2023-08-01T11:55:00;4.80;;;1.43;;
3274;SDS011;1649;53.672;10.064;2023-08-01T11:57:26;3.63;;;1.13;;
3274;SDS011;1649;53.672;10.064;2023-08-01T11:59:52;3.97;;;1.27;;
3274;SDS011;1649;53.672;10.064;2023-08-01T12:02:26;3.50;;;1.00;;
3274;SDS011;1649;53.672;10.064;2023-08-01T12:04:53;3.30;;;1.10;;
3274;SDS011;1649;53.672;10.064;2023-08-01T12:07:19;5.83;;;1.30;;
3274;SDS011;1649;53.672;10.064;2023-08-01T12:09:54;3.70;;;1.10;;
3274;SDS011;1649;53.672;10.064;2023-08-01T12:12:21;3.53;;;1.10;;
3274;SDS011;1649;53.672;10.064;2023-08-01T12:14:47;4.33;;;1.00;;
3274;SDS011;1649;53.672;10.064;2023-08-01T12:17:12;4.50;;;1.10;;
3274;SDS011;1649;53.672;10.064;2023-08-01T12:19:38;3.97;;;1.10;;
3274;SDS011;1649;53.672;10.064;2023-08-01T12:22:03;6.13;;;1.10;;
3274;SDS011;1649;53.672;10.064;2023-08-01T12:24:29;3.53;;;1.13;;
3274;SDS011;1649;53.672;10.064;2023-08-01T12:26:55;3.70;;;1.00;;
3274;SDS011;1649;53.672;10.064;2023-08-01T12:29:21;4.57;;;1.10;;
3274;SDS011;1649;53.672;10.064;2023-08-01T12:31:48;3.40;;;1.00;;
3274;SDS011;1649;53.672;10.064;2023-08-01T12:34:13;3.90;;;1.20;;
3274;SDS011;1649;53.672;10.064;2023-08-01T12:36:39;3.40;;;1.20;;
3274;SDS011;1649;53.672;10.064;2023-08-01T12:39:06;4.37;;;1.00;;
3274;SDS011;1649;53.672;10.064;2023-08-01T12:41:35;3.57;;;1.20;;
3274;SDS011;1649;53.672;10.064;2023-08-01T12:44:01;4.17;;;1.10;;
3274;SDS011;1649;53.672;10.064;2023-08-01T12:46:27;3.60;;;1.27;;
3274;SDS011;1649;53.672;10.064;2023-08-01T12:48:52;4.03;;;1.20;;
3274;SDS011;1649;53.672;10.064;2023-08-01T12:51:18;3.97;;;1.40;;
3274;SDS011;1649;53.672;10.064;2023-08-01T12:53:43;4.27;;;1.20;;
3274;SDS011;1649;53.672;10.064;2023-08-01T12:56:09;6.00;;;1.50;;
3274;SDS011;1649;53.672;10.064;2023-08-01T12:58:34;3.90;;;1.57;;
3274;SDS011;1649;53.672;10.064;2023-08-01T13:01:02;4.73;;;1.67;;
3274;SDS011;1649;53.672;10.064;2023-08-01T13:03:28;4.07;;;1.33;;
3274;SDS011;1649;53.672;10.064;2023-08-01T13:05:54;4.53;;;1.60;;
3274;SDS011;1649;53.672;10.064;2023-08-01T13:08:21;4.17;;;1.30;;
3274;SDS011;1649;53.672;10.064;2023-08-01T13:10:47;4.03;;;1.60;;
3274;SDS011;1649;53.672;10.064;2023-08-01T13:13:14;4.30;;;1.60;;
3274;SDS011;1649;53.672;10.064;2023-08-01T13:15:40;4.10;;;1.83;;
3274;SDS011;1649;53.672;10.064;2023-08-01T13:18:06;5.90;;;1.90;;
3274;SDS011;1649;53.672;10.064;2023-08-01T13:20:31;4.30;;;2.03;;
3274;SDS011;1649;53.672;10.064;2023-08-01T13:22:57;4.57;;;1.70;;
3274;SDS011;1649;53.672;10.064;2023-08-01T13:25:22;6.50;;;2.40;;
3274;SDS011;1649;53.672;10.064;2023-08-01T13:27:48;4.37;;;1.73;;
3274;SDS011;1649;53.672;10.064;2023-08-01T13:30:13;5.20;;;2.10;;
3274;SDS011;1649;53.672;10.064;2023-08-01T13:32:39;5.03;;;2.37;;
3274;SDS011;1649;53.672;10.064;2023-08-01T13:35:06;3.60;;;1.50;;
3274;SDS011;1649;53.672;10.064;2023-08-01T13:37:31;5.13;;;1.80;;
3274;SDS011;1649;53.672;10.064;2023-08-01T13:39:57;4.33;;;1.60;;
3274;SDS011;1649;53.672;10.064;2023-08-01T13:42:23;4.23;;;1.60;;
3274;SDS011;1649;53.672;10.064;2023-08-01T13:44:48;4.97;;;1.90;;
3274;SDS011;1649;53.672;10.064;2023-08-01T13:47:14;3.83;;;1.30;;
3274;SDS011;1649;53.672;10.064;2023-08-01T13:49:39;4.33;;;1.53;;
3274;SDS011;1649;53.672;10.064;2023-08-01T13:52:05;4.93;;;1.60;;
3274;SDS011;1649;53.672;10.064;2023-08-01T13:54:31;3.60;;;1.30;;
3274;SDS011;1649;53.672;10.064;2023-08-01T13:56:56;4.00;;;1.60;;
3274;SDS011;1649;53.672;10.064;2023-08-01T13:59:22;3.67;;;1.40;;
3274;SDS011;1649;53.672;10.064;2023-08-01T14:01:48;5.10;;;1.90;;
3274;SDS011;1649;53.672;10.064;2023-08-01T14:04:13;5.33;;;1.93;;
3274;SDS011;1649;53.672;10.064;2023-08-01T14:06:39;5.47;;;1.87;;
3274;SDS011;1649;53.672;10.064;2023-08-01T14:09:06;4.60;;;2.10;;
3274;SDS011;1649;53.672;10.064;2023-08-01T14:11:33;7.70;;;2.20;;
3274;SDS011;1649;53.672;10.064;2023-08-01T14:13:59;4.93;;;1.63;;
3274;SDS011;1649;53.672;10.064;2023-08-01T14:16:25;4.07;;;1.90;;
3274;SDS011;1649;53.672;10.064;2023-08-01T14:18:50;5.40;;;2.50;;
3274;SDS011;1649;53.672;10.064;2023-08-01T14:21:16;7.00;;;2.30;;
3274;SDS011;1649;53.672;10.064;2023-08-01T14:23:41;5.70;;;2.17;;
3274;SDS011;1649;53.672;10.064;2023-08-01T14:26:07;4.87;;;2.10;;
3274;SDS011;1649;53.672;10.064;2023-08-01T14:28:33;4.20;;;2.20;;
3274;SDS011;1649;53.672;10.064;2023-08-01T14:31:02;4.60;;;2.00;;
3274;SDS011;1649;53.672;10.064;2023-08-01T14:33:29;4.03;;;1.60;;
3274;SDS011;1649;53.672;10.064;2023-08-01T14:35:55;3.80;;;1.30;;
3274;SDS011;1649;53.672;10.064;2023-08-01T14:38:21;4.03;;;1.53;;
3274;SDS011;1649;53.672;10.064;2023-08-01T14:40:46;4.73;;;1.60;;
3274;SDS011;1649;53.672;10.064;2023-08-01T14:43:12;3.70;;;1.20;;
3274;SDS011;1649;53.672;10.064;2023-08-01T14:45:38;3.67;;;1.20;;
3274;SDS011;1649;53.672;10.064;2023-08-01T14:48:04;4.27;;;1.10;;
3274;SDS011;1649;53.672;10.064;2023-08-01T14:50:30;3.70;;;1.10;;
3274;SDS011;1649;53.672;10.064;2023-08-01T14:52:56;4.20;;;1.07;;